createdAt,value
2022-09-16T00:00:54.791Z,16.48
2022-09-16T00:02:27.841Z,17.50
2022-09-16T00:04:00.705Z,18.17
2022-09-16T00:05:32.867Z,17.98
2022-09-16T00:07:05.846Z,14.98
2022-09-16T00:08:40.367Z,16.15
2022-09-16T00:10:13.309Z,17.92
2022-09-16T00:11:46.214Z,19.88
2022-09-16T00:13:21.006Z,18.58
2022-09-16T00:14:54.407Z,19.15
2022-09-16T00:16:28.467Z,17.23
2022-09-16T00:18:01.530Z,20.90
2022-09-16T00:19:34.428Z,20.63
2022-09-16T00:21:10.227Z,20.83
2022-09-16T00:22:43.076Z,18.25
2022-09-16T00:24:16.385Z,21.08
2022-09-16T00:27:23.421Z,15.60
2022-09-16T00:28:57.845Z,17.70
2022-09-16T00:30:30.702Z,18.85
2022-09-16T00:32:04.178Z,18.65
2022-09-16T00:33:37.120Z,20.58
2022-09-16T00:35:10.424Z,20.30
2022-09-16T00:38:16.249Z,20.52
2022-09-16T00:39:50.203Z,16.90
2022-09-16T00:41:27.011Z,18.17
2022-09-16T00:43:01.121Z,19.83
2022-09-16T00:44:57.121Z,16.00
2022-09-16T00:46:37.443Z,15.13
2022-09-16T00:48:17.932Z,17.48
2022-09-16T00:49:50.998Z,17.63
2022-09-16T00:51:25.433Z,20.35
2022-09-16T00:53:00.851Z,19.17
2022-09-16T00:54:35.675Z,17.48
2022-09-16T00:56:11.795Z,19.75
2022-09-16T00:57:45.643Z,15.57
2022-09-16T00:59:22.345Z,18.58
2022-09-16T01:00:56.984Z,18.23
2022-09-16T01:02:29.345Z,17.42
2022-09-16T01:04:07.873Z,21.10
2022-09-16T01:05:41.103Z,16.17
2022-09-16T01:07:14.190Z,18.42
2022-09-16T01:08:47.664Z,17.80
2022-09-16T01:10:22.729Z,17.80
2022-09-16T01:11:55.677Z,17.83
2022-09-16T01:13:27.926Z,17.50
2022-09-16T01:15:01.901Z,16.38
2022-09-16T01:16:44.051Z,14.82
2022-09-16T01:18:26.438Z,17.08
2022-09-16T01:20:35.936Z,16.45
2022-09-16T01:22:22.300Z,14.57
2022-09-16T01:24:29.363Z,15.05
2022-09-16T01:26:21.900Z,15.30
2022-09-16T01:28:22.380Z,15.98
2022-09-16T01:30:14.303Z,18.10
2022-09-16T01:31:54.960Z,13.70
2022-09-16T01:33:37.694Z,13.95
2022-09-16T01:35:19.177Z,15.93
2022-09-16T01:37:01.324Z,18.05
2022-09-16T01:38:46.861Z,15.40
2022-09-16T01:40:28.512Z,16.60
2022-09-16T01:42:20.891Z,14.70
2022-09-16T01:44:01.261Z,14.52
2022-09-16T01:45:40.767Z,14.98
2022-09-16T01:47:22.018Z,15.07
2022-09-16T01:48:59.087Z,14.55
2022-09-16T01:50:38.392Z,14.73
2022-09-16T01:52:21.194Z,13.48
2022-09-16T01:54:04.062Z,14.38
2022-09-16T01:55:42.822Z,13.25
2022-09-16T01:57:19.470Z,14.63
2022-09-16T01:58:57.435Z,13.88
2022-09-16T02:00:31.624Z,12.80
2022-09-16T02:02:09.569Z,13.95
2022-09-16T02:03:48.007Z,16.63
2022-09-16T02:05:27.472Z,12.75
2022-09-16T02:07:01.860Z,13.57
2022-09-16T02:08:39.608Z,13.63
2022-09-16T02:10:19.954Z,14.38
2022-09-16T02:11:55.058Z,13.57
2022-09-16T02:13:31.878Z,12.82
2022-09-16T02:15:07.829Z,14.05
2022-09-16T02:16:45.567Z,16.60
2022-09-16T02:18:21.494Z,13.55
2022-09-16T02:19:59.747Z,12.90
2022-09-16T02:21:34.981Z,14.23
2022-09-16T02:23:13.328Z,13.05
2022-09-16T02:24:48.829Z,13.60
2022-09-16T02:26:26.513Z,12.65
2022-09-16T02:28:02.631Z,14.95
2022-09-16T02:29:40.878Z,13.95
2022-09-16T02:31:15.357Z,13.35
2022-09-16T02:32:50.647Z,12.15
2022-09-16T02:34:29.707Z,15.23
2022-09-16T02:36:05.313Z,12.57
2022-09-16T02:37:41.853Z,13.48
2022-09-16T02:39:19.938Z,14.00
2022-09-16T02:40:55.955Z,11.40
2022-09-16T02:42:28.547Z,11.75
2022-09-16T02:44:02.198Z,10.27
2022-09-16T02:45:45.288Z,10.95
2022-09-16T02:47:27.622Z,11.85
2022-09-16T02:49:06.318Z,11.80
2022-09-16T02:50:45.518Z,12.07
2022-09-16T02:52:25.694Z,12.32
2022-09-16T02:54:03.501Z,11.65
2022-09-16T02:55:41.797Z,11.43
2022-09-16T02:57:15.598Z,13.00
2022-09-16T02:58:48.574Z,14.85
2022-09-16T03:00:20.736Z,10.98
2022-09-16T03:01:53.644Z,10.60
2022-09-16T03:03:25.795Z,10.13
2022-09-16T03:04:58.687Z,11.32
2022-09-16T03:06:36.074Z,11.00
2022-09-16T03:08:10.644Z,10.88
2022-09-16T03:09:46.519Z,9.43
2022-09-16T03:11:41.268Z,11.75
2022-09-16T03:13:23.581Z,11.68
2022-09-16T03:15:26.072Z,9.90
2022-09-16T03:17:13.813Z,11.07
2022-09-16T03:18:58.327Z,9.88
2022-09-16T03:20:40.059Z,8.95
2022-09-16T03:22:24.170Z,12.48
2022-09-16T03:24:10.291Z,10.35
2022-09-16T03:25:51.924Z,9.02
2022-09-16T03:27:31.866Z,10.43
2022-09-16T03:29:12.395Z,10.43
2022-09-16T03:30:55.562Z,10.88
2022-09-16T03:32:33.398Z,9.55
2022-09-16T03:37:08.086Z,9.25
2022-09-16T03:38:43.038Z,12.80
2022-09-16T03:40:19.578Z,9.07
2022-09-16T03:41:52.860Z,11.85
2022-09-16T03:43:26.000Z,10.18
2022-09-16T03:44:58.490Z,12.07
2022-09-16T03:46:32.686Z,13.02
2022-09-16T03:48:06.371Z,10.00
2022-09-16T03:52:39.403Z,8.98
2022-09-16T03:55:46.605Z,13.60
2022-09-16T03:57:19.461Z,12.32
2022-09-16T03:58:52.814Z,11.27
2022-09-16T04:01:59.110Z,15.15
2022-09-16T04:03:33.451Z,9.57
2022-09-16T04:05:08.143Z,9.38
2022-09-16T04:06:41.462Z,8.98
2022-09-16T04:09:47.199Z,10.05
2022-09-16T04:11:20.626Z,11.45
2022-09-16T04:12:58.292Z,8.65
2022-09-16T04:14:30.410Z,13.48
2022-09-16T04:16:04.833Z,12.27
2022-09-16T04:17:37.244Z,11.25
2022-09-16T04:19:12.892Z,11.30
2022-09-16T04:20:45.941Z,9.48
2022-09-16T04:22:17.922Z,11.23
2022-09-16T04:23:51.357Z,11.10
2022-09-16T04:25:24.467Z,9.88
2022-09-16T04:26:58.785Z,11.27
2022-09-16T04:28:33.241Z,10.48
2022-09-16T04:30:07.098Z,9.93
2022-09-16T04:31:39.028Z,12.48
2022-09-16T04:33:11.957Z,11.02
2022-09-16T04:34:44.882Z,9.57
2022-09-16T04:36:20.292Z,11.73
2022-09-16T04:37:53.636Z,10.38
2022-09-16T04:41:03.410Z,10.15
2022-09-16T04:42:37.708Z,9.40
2022-09-16T04:44:12.079Z,10.48
2022-09-16T04:45:44.001Z,10.38
2022-09-16T04:47:16.880Z,11.20
2022-09-16T04:48:50.163Z,11.00
2022-09-16T04:51:55.802Z,10.27
2022-09-16T04:53:28.847Z,10.38
2022-09-16T04:55:01.810Z,15.73
2022-09-16T04:56:35.258Z,11.45
2022-09-16T04:58:09.518Z,11.80
2022-09-16T04:59:42.420Z,12.48
2022-09-16T05:01:17.857Z,10.77
2022-09-16T05:02:49.909Z,10.27
2022-09-16T05:04:22.977Z,11.07
2022-09-16T05:05:55.927Z,9.65
2022-09-16T05:07:29.346Z,11.98
2022-09-16T05:10:35.513Z,11.77
2022-09-16T05:12:09.370Z,10.23
2022-09-16T05:13:43.981Z,12.18
2022-09-16T05:15:17.074Z,15.23
2022-09-16T05:16:50.182Z,11.25
2022-09-16T05:18:22.118Z,10.10
2022-09-16T05:19:55.017Z,11.27
2022-09-16T05:21:29.501Z,12.23
2022-09-16T05:23:02.451Z,9.13
2022-09-16T05:24:37.445Z,10.25
2022-09-16T05:26:12.238Z,9.40
2022-09-16T05:27:45.170Z,10.70
2022-09-16T05:29:19.385Z,8.90
2022-09-16T05:30:52.433Z,8.70
2022-09-16T05:32:25.522Z,11.02
2022-09-16T05:33:59.833Z,11.63
2022-09-16T05:35:32.779Z,12.30
2022-09-16T05:37:05.924Z,12.88
2022-09-16T05:38:38.085Z,8.82
2022-09-16T05:40:11.386Z,10.65
2022-09-16T05:43:17.215Z,10.73
2022-09-16T05:44:51.607Z,12.20
2022-09-16T05:46:25.451Z,9.52
2022-09-16T05:47:58.463Z,8.88
2022-09-16T05:49:31.426Z,12.00
2022-09-16T05:51:06.987Z,10.85
2022-09-16T05:52:39.948Z,7.50
2022-09-16T05:54:12.969Z,11.32
2022-09-16T05:55:56.230Z,9.68
2022-09-16T05:57:29.273Z,8.52
2022-09-16T05:59:02.569Z,9.00
2022-09-16T06:02:12.701Z,9.45
2022-09-16T06:03:47.346Z,11.70
2022-09-16T06:05:20.291Z,10.13
2022-09-16T06:06:53.198Z,13.30
2022-09-16T06:08:26.651Z,9.38
2022-09-16T06:09:59.931Z,9.85
2022-09-16T06:13:06.177Z,11.65
2022-09-16T06:14:39.327Z,11.63
2022-09-16T06:16:14.541Z,10.18
2022-09-16T06:17:47.515Z,9.20
2022-09-16T06:19:20.561Z,11.43
2022-09-16T06:20:52.869Z,11.98
2022-09-16T06:22:25.901Z,12.63
2022-09-16T06:23:58.950Z,9.95
2022-09-16T06:25:34.358Z,9.20
2022-09-16T06:27:07.445Z,10.57
2022-09-16T06:28:40.914Z,12.90
2022-09-16T06:30:13.987Z,10.80
2022-09-16T06:31:48.337Z,10.15
2022-09-16T06:33:21.348Z,9.43
2022-09-16T06:34:54.470Z,8.70
2022-09-16T06:36:29.674Z,7.78
2022-09-16T06:38:02.647Z,8.70
2022-09-16T06:39:35.910Z,8.88
2022-09-16T06:42:42.260Z,13.65
2022-09-16T06:44:15.170Z,10.63
2022-09-16T06:45:48.093Z,11.88
2022-09-16T06:47:22.690Z,8.75
2022-09-16T06:48:59.346Z,7.55
2022-09-16T06:50:35.847Z,9.93
2022-09-16T06:52:09.447Z,10.27
2022-09-16T06:53:42.358Z,11.20
2022-09-16T06:55:15.551Z,9.10
2022-09-16T06:56:49.574Z,7.88
2022-09-16T06:58:22.643Z,7.63
2022-09-16T06:59:55.577Z,8.50
2022-09-16T07:01:30.055Z,8.93
2022-09-16T07:03:05.088Z,6.70
2022-09-16T07:04:38.054Z,8.38
2022-09-16T07:06:12.529Z,7.97
2022-09-16T07:07:45.431Z,8.68
2022-09-16T07:09:18.430Z,11.15
2022-09-16T07:10:57.682Z,10.32
2022-09-16T07:12:30.759Z,9.07
2022-09-16T07:14:03.677Z,9.65
2022-09-16T07:15:50.965Z,9.15
2022-09-16T07:17:30.117Z,8.57
2022-09-16T07:19:05.199Z,8.40
2022-09-16T07:20:38.104Z,9.60
2022-09-16T07:22:11.490Z,8.48
2022-09-16T07:23:45.775Z,11.10
2022-09-16T07:25:18.694Z,8.50
2022-09-16T07:26:51.726Z,11.35
2022-09-16T07:28:24.690Z,8.50
2022-09-16T07:30:00.146Z,10.35
2022-09-16T07:31:35.011Z,10.68
2022-09-16T07:33:07.967Z,8.70
2022-09-16T07:34:43.503Z,8.07
2022-09-16T07:36:18.077Z,10.35
2022-09-16T07:37:51.064Z,7.80
2022-09-16T07:39:25.745Z,8.63
2022-09-16T07:41:05.503Z,10.43
2022-09-16T07:42:38.481Z,8.15
2022-09-16T07:44:13.970Z,8.88
2022-09-16T07:45:47.016Z,7.18
2022-09-16T07:47:22.198Z,7.53
2022-09-16T07:48:55.968Z,7.97
2022-09-16T07:50:30.274Z,8.48
2022-09-16T07:52:03.612Z,8.32
